sensor_id;sensor_type;location;lat;lon;timestamp;temperature;humidity
55313;DHT22;46892;45.668;11.756;2024-01-25T00:02:21;1.70;85.10
55313;DHT22;46892;45.668;11.756;2024-01-25T00:04:47;1.70;85.50
55313;DHT22;46892;45.668;11.756;2024-01-25T00:07:13;1.70;85.60
55313;DHT22;46892;45.668;11.756;2024-01-25T00:09:38;1.60;85.90
55313;DHT22;46892;45.668;11.756;2024-01-25T00:12:05;1.70;85.80
55313;DHT22;46892;45.668;11.756;2024-01-25T00:14:31;1.60;85.90
55313;DHT22;46892;45.668;11.756;2024-01-25T00:16:56;1.60;86.20
55313;DHT22;46892;45.668;11.756;2024-01-25T00:19:22;1.60;86.20
55313;DHT22;46892;45.668;11.756;2024-01-25T00:21:48;1.60;86.40
55313;DHT22;46892;45.668;11.756;2024-01-25T00:24:14;1.60;86.60
55313;DHT22;46892;45.668;11.756;2024-01-25T00:26:39;1.70;86.80
55313;DHT22;46892;45.668;11.756;2024-01-25T00:29:05;1.70;86.60
55313;DHT22;46892;45.668;11.756;2024-01-25T00:31:31;1.70;86.60
55313;DHT22;46892;45.668;11.756;2024-01-25T00:34:01;1.80;85.50
55313;DHT22;46892;45.668;11.756;2024-01-25T00:36:27;1.80;85.50
55313;DHT22;46892;45.668;11.756;2024-01-25T00:38:53;1.80;85.70
55313;DHT22;46892;45.668;11.756;2024-01-25T00:41:19;1.80;85.50
55313;DHT22;46892;45.668;11.756;2024-01-25T00:43:45;1.80;85.60
55313;DHT22;46892;45.668;11.756;2024-01-25T00:46:12;1.70;85.40
55313;DHT22;46892;45.668;11.756;2024-01-25T00:48:38;1.70;85.20
55313;DHT22;46892;45.668;11.756;2024-01-25T00:51:07;1.60;85.20
55313;DHT22;46892;45.668;11.756;2024-01-25T00:53:33;1.60;85.20
55313;DHT22;46892;45.668;11.756;2024-01-25T00:56:00;1.50;85.50
55313;DHT22;46892;45.668;11.756;2024-01-25T00:58:26;1.60;85.80
55313;DHT22;46892;45.668;11.756;2024-01-25T01:00:52;1.70;86.10
55313;DHT22;46892;45.668;11.756;2024-01-25T01:03:21;1.60;85.40
55313;DHT22;46892;45.668;11.756;2024-01-25T01:05:47;1.60;85.60
55313;DHT22;46892;45.668;11.756;2024-01-25T01:08:13;1.50;85.40
55313;DHT22;46892;45.668;11.756;2024-01-25T01:10:38;1.40;85.50
55313;DHT22;46892;45.668;11.756;2024-01-25T01:13:04;1.40;85.30
55313;DHT22;46892;45.668;11.756;2024-01-25T01:15:30;1.40;85.60
55313;DHT22;46892;45.668;11.756;2024-01-25T01:17:55;1.40;86.00
55313;DHT22;46892;45.668;11.756;2024-01-25T01:20:21;1.40;85.80
55313;DHT22;46892;45.668;11.756;2024-01-25T01:22:47;1.40;85.70
55313;DHT22;46892;45.668;11.756;2024-01-25T01:25:13;1.40;86.10
55313;DHT22;46892;45.668;11.756;2024-01-25T01:27:38;1.40;85.80
55313;DHT22;46892;45.668;11.756;2024-01-25T01:30:05;1.40;86.10
55313;DHT22;46892;45.668;11.756;2024-01-25T01:32:33;1.50;85.90
55313;DHT22;46892;45.668;11.756;2024-01-25T01:34:59;1.50;85.50
55313;DHT22;46892;45.668;11.756;2024-01-25T01:37:25;1.40;85.20
55313;DHT22;46892;45.668;11.756;2024-01-25T01:39:50;1.40;84.90
55313;DHT22;46892;45.668;11.756;2024-01-25T01:42:17;1.30;85.00
55313;DHT22;46892;45.668;11.756;2024-01-25T01:44:43;1.20;85.00
55313;DHT22;46892;45.668;11.756;2024-01-25T01:47:09;1.20;85.80
55313;DHT22;46892;45.668;11.756;2024-01-25T01:49:35;1.20;85.80
55313;DHT22;46892;45.668;11.756;2024-01-25T01:52:01;1.20;85.80
55313;DHT22;46892;45.668;11.756;2024-01-25T01:54:27;1.10;85.80
55313;DHT22;46892;45.668;11.756;2024-01-25T01:56:53;1.10;86.20
55313;DHT22;46892;45.668;11.756;2024-01-25T01:59:20;1.00;86.40
55313;DHT22;46892;45.668;11.756;2024-01-25T02:01:46;1.10;86.70
55313;DHT22;46892;45.668;11.756;2024-01-25T02:04:12;1.10;86.90
55313;DHT22;46892;45.668;11.756;2024-01-25T02:06:37;1.20;86.90
55313;DHT22;46892;45.668;11.756;2024-01-25T02:09:04;1.10;87.00
55313;DHT22;46892;45.668;11.756;2024-01-25T02:11:30;1.00;86.30
55313;DHT22;46892;45.668;11.756;2024-01-25T02:13:56;1.00;86.00
55313;DHT22;46892;45.668;11.756;2024-01-25T02:16:22;0.90;86.60
55313;DHT22;46892;45.668;11.756;2024-01-25T02:18:47;0.90;86.70
55313;DHT22;46892;45.668;11.756;2024-01-25T02:21:14;0.90;86.90
55313;DHT22;46892;45.668;11.756;2024-01-25T02:23:39;0.80;87.30
55313;DHT22;46892;45.668;11.756;2024-01-25T02:26:05;0.80;87.50
55313;DHT22;46892;45.668;11.756;2024-01-25T02:28:31;0.80;87.10
55313;DHT22;46892;45.668;11.756;2024-01-25T02:30:58;0.80;87.00
55313;DHT22;46892;45.668;11.756;2024-01-25T02:33:24;0.90;87.50
55313;DHT22;46892;45.668;11.756;2024-01-25T02:35:50;1.00;87.60
55313;DHT22;46892;45.668;11.756;2024-01-25T02:38:16;1.00;87.70
55313;DHT22;46892;45.668;11.756;2024-01-25T02:40:42;1.00;87.30
55313;DHT22;46892;45.668;11.756;2024-01-25T02:43:08;1.00;87.00
55313;DHT22;46892;45.668;11.756;2024-01-25T02:45:34;1.00;87.20
55313;DHT22;46892;45.668;11.756;2024-01-25T02:47:59;1.00;87.30
55313;DHT22;46892;45.668;11.756;2024-01-25T02:50:27;1.00;87.60
55313;DHT22;46892;45.668;11.756;2024-01-25T02:52:53;0.90;87.10
55313;DHT22;46892;45.668;11.756;2024-01-25T02:55:19;0.90;87.70
55313;DHT22;46892;45.668;11.756;2024-01-25T02:57:45;0.90;87.80
55313;DHT22;46892;45.668;11.756;2024-01-25T03:00:11;0.80;87.80
55313;DHT22;46892;45.668;11.756;2024-01-25T03:02:37;0.90;87.70
55313;DHT22;46892;45.668;11.756;2024-01-25T03:05:04;0.80;87.60
55313;DHT22;46892;45.668;11.756;2024-01-25T03:07:29;0.80;87.70
55313;DHT22;46892;45.668;11.756;2024-01-25T03:09:55;0.80;87.70
55313;DHT22;46892;45.668;11.756;2024-01-25T03:12:21;0.80;87.70
55313;DHT22;46892;45.668;11.756;2024-01-25T03:14:48;0.80;87.70
55313;DHT22;46892;45.668;11.756;2024-01-25T03:17:14;0.80;87.60
55313;DHT22;46892;45.668;11.756;2024-01-25T03:19:40;0.90;87.40
55313;DHT22;46892;45.668;11.756;2024-01-25T03:22:05;0.80;87.20
55313;DHT22;46892;45.668;11.756;2024-01-25T03:24:31;0.80;87.30
55313;DHT22;46892;45.668;11.756;2024-01-25T03:26:57;0.80;87.30
55313;DHT22;46892;45.668;11.756;2024-01-25T03:29:23;0.80;87.10
55313;DHT22;46892;45.668;11.756;2024-01-25T03:31:48;0.80;87.00
55313;DHT22;46892;45.668;11.756;2024-01-25T03:34:15;0.80;86.90
55313;DHT22;46892;45.668;11.756;2024-01-25T03:36:41;0.90;87.40
55313;DHT22;46892;45.668;11.756;2024-01-25T03:39:07;0.90;87.50
55313;DHT22;46892;45.668;11.756;2024-01-25T03:41:32;1.00;87.30
55313;DHT22;46892;45.668;11.756;2024-01-25T03:43:58;1.00;87.20
55313;DHT22;46892;45.668;11.756;2024-01-25T03:46:24;1.00;87.20
55313;DHT22;46892;45.668;11.756;2024-01-25T03:48:50;1.00;87.00
55313;DHT22;46892;45.668;11.756;2024-01-25T03:51:15;1.10;86.70
55313;DHT22;46892;45.668;11.756;2024-01-25T03:53:42;1.00;86.00
55313;DHT22;46892;45.668;11.756;2024-01-25T03:56:12;1.00;86.20
55313;DHT22;46892;45.668;11.756;2024-01-25T03:58:38;0.90;86.40
55313;DHT22;46892;45.668;11.756;2024-01-25T04:01:04;1.00;86.90
55313;DHT22;46892;45.668;11.756;2024-01-25T04:03:30;1.00;86.50
55313;DHT22;46892;45.668;11.756;2024-01-25T04:05:55;1.00;86.60
55313;DHT22;46892;45.668;11.756;2024-01-25T04:08:21;1.00;86.40
55313;DHT22;46892;45.668;11.756;2024-01-25T04:10:47;1.10;86.40
55313;DHT22;46892;45.668;11.756;2024-01-25T04:13:12;1.20;86.50
55313;DHT22;46892;45.668;11.756;2024-01-25T04:15:38;1.20;86.60
55313;DHT22;46892;45.668;11.756;2024-01-25T04:18:04;1.10;85.40
55313;DHT22;46892;45.668;11.756;2024-01-25T04:20:30;1.10;85.90
55313;DHT22;46892;45.668;11.756;2024-01-25T04:22:57;1.20;85.90
55313;DHT22;46892;45.668;11.756;2024-01-25T04:25:22;1.10;85.60
55313;DHT22;46892;45.668;11.756;2024-01-25T04:27:48;1.20;86.30
55313;DHT22;46892;45.668;11.756;2024-01-25T04:30:14;1.30;85.60
55313;DHT22;46892;45.668;11.756;2024-01-25T04:32:40;1.20;85.30
55313;DHT22;46892;45.668;11.756;2024-01-25T04:35:06;1.10;85.00
55313;DHT22;46892;45.668;11.756;2024-01-25T04:37:33;1.00;85.50
55313;DHT22;46892;45.668;11.756;2024-01-25T04:39:59;0.90;86.00
55313;DHT22;46892;45.668;11.756;2024-01-25T04:42:25;0.90;86.10
55313;DHT22;46892;45.668;11.756;2024-01-25T04:44:50;0.90;86.10
55313;DHT22;46892;45.668;11.756;2024-01-25T04:47:16;0.90;86.10
55313;DHT22;46892;45.668;11.756;2024-01-25T04:49:42;0.90;86.00
55313;DHT22;46892;45.668;11.756;2024-01-25T04:52:08;0.90;85.80
55313;DHT22;46892;45.668;11.756;2024-01-25T04:54:33;1.00;85.80
55313;DHT22;46892;45.668;11.756;2024-01-25T04:56:59;0.90;85.90
55313;DHT22;46892;45.668;11.756;2024-01-25T04:59:25;0.90;85.70
55313;DHT22;46892;45.668;11.756;2024-01-25T05:01:51;0.90;85.70
55313;DHT22;46892;45.668;11.756;2024-01-25T05:04:19;1.00;85.90
55313;DHT22;46892;45.668;11.756;2024-01-25T05:06:45;0.90;85.90
55313;DHT22;46892;45.668;11.756;2024-01-25T05:09:11;0.90;87.20
55313;DHT22;46892;45.668;11.756;2024-01-25T05:11:40;0.80;86.20
55313;DHT22;46892;45.668;11.756;2024-01-25T05:14:06;0.80;86.80
55313;DHT22;46892;45.668;11.756;2024-01-25T05:16:32;0.80;86.90
55313;DHT22;46892;45.668;11.756;2024-01-25T05:18:58;0.70;85.80
55313;DHT22;46892;45.668;11.756;2024-01-25T05:21:24;0.50;86.10
55313;DHT22;46892;45.668;11.756;2024-01-25T05:23:49;0.40;86.30
55313;DHT22;46892;45.668;11.756;2024-01-25T05:26:15;0.50;86.70
55313;DHT22;46892;45.668;11.756;2024-01-25T05:28:42;0.50;86.60
55313;DHT22;46892;45.668;11.756;2024-01-25T05:31:08;0.60;86.90
55313;DHT22;46892;45.668;11.756;2024-01-25T05:33:41;0.60;86.90
55313;DHT22;46892;45.668;11.756;2024-01-25T05:36:07;0.60;87.20
55313;DHT22;46892;45.668;11.756;2024-01-25T05:38:33;0.50;86.70
55313;DHT22;46892;45.668;11.756;2024-01-25T05:40:59;0.50;87.60
55313;DHT22;46892;45.668;11.756;2024-01-25T05:43:25;0.60;88.50
55313;DHT22;46892;45.668;11.756;2024-01-25T05:45:51;0.70;87.30
55313;DHT22;46892;45.668;11.756;2024-01-25T05:48:17;0.70;87.50
55313;DHT22;46892;45.668;11.756;2024-01-25T05:50:43;0.60;87.60
55313;DHT22;46892;45.668;11.756;2024-01-25T05:53:09;0.60;87.50
55313;DHT22;46892;45.668;11.756;2024-01-25T05:55:34;0.70;87.80
55313;DHT22;46892;45.668;11.756;2024-01-25T05:58:00;0.60;87.30
55313;DHT22;46892;45.668;11.756;2024-01-25T06:00:26;0.70;87.90
55313;DHT22;46892;45.668;11.756;2024-01-25T06:02:53;0.60;87.00
55313;DHT22;46892;45.668;11.756;2024-01-25T06:05:19;0.60;87.00
55313;DHT22;46892;45.668;11.756;2024-01-25T06:07:45;0.60;87.00
55313;DHT22;46892;45.668;11.756;2024-01-25T06:10:11;0.60;86.60
55313;DHT22;46892;45.668;11.756;2024-01-25T06:12:36;0.60;87.10
55313;DHT22;46892;45.668;11.756;2024-01-25T06:15:02;0.80;87.30
55313;DHT22;46892;45.668;11.756;2024-01-25T06:17:28;0.80;86.40
55313;DHT22;46892;45.668;11.756;2024-01-25T06:19:54;0.80;86.70
55313;DHT22;46892;45.668;11.756;2024-01-25T06:22:20;0.80;86.70
55313;DHT22;46892;45.668;11.756;2024-01-25T06:24:45;0.80;86.90
55313;DHT22;46892;45.668;11.756;2024-01-25T06:27:11;0.80;87.40
55313;DHT22;46892;45.668;11.756;2024-01-25T06:29:37;0.80;86.70
55313;DHT22;46892;45.668;11.756;2024-01-25T06:32:03;0.80;86.80
55313;DHT22;46892;45.668;11.756;2024-01-25T06:34:28;0.70;87.00
55313;DHT22;46892;45.668;11.756;2024-01-25T06:36:54;0.70;87.40
55313;DHT22;46892;45.668;11.756;2024-01-25T06:39:20;0.50;86.50
55313;DHT22;46892;45.668;11.756;2024-01-25T06:41:46;0.50;87.00
55313;DHT22;46892;45.668;11.756;2024-01-25T06:44:12;0.40;86.50
55313;DHT22;46892;45.668;11.756;2024-01-25T06:46:38;0.30;87.20
55313;DHT22;46892;45.668;11.756;2024-01-25T06:49:04;0.30;87.60
55313;DHT22;46892;45.668;11.756;2024-01-25T06:51:29;0.20;88.00
55313;DHT22;46892;45.668;11.756;2024-01-25T06:53:55;0.20;88.00
55313;DHT22;46892;45.668;11.756;2024-01-25T06:56:21;0.10;87.80
55313;DHT22;46892;45.668;11.756;2024-01-25T06:58:47;0.10;87.80
55313;DHT22;46892;45.668;11.756;2024-01-25T07:01:12;0.00;87.70
55313;DHT22;46892;45.668;11.756;2024-01-25T07:03:39;0.10;88.40
55313;DHT22;46892;45.668;11.756;2024-01-25T07:06:05;0.20;88.80
55313;DHT22;46892;45.668;11.756;2024-01-25T07:08:31;0.20;88.40
55313;DHT22;46892;45.668;11.756;2024-01-25T07:10:57;0.20;88.50
55313;DHT22;46892;45.668;11.756;2024-01-25T07:13:25;0.30;88.50
55313;DHT22;46892;45.668;11.756;2024-01-25T07:15:50;0.30;88.50
55313;DHT22;46892;45.668;11.756;2024-01-25T07:18:16;0.40;88.70
55313;DHT22;46892;45.668;11.756;2024-01-25T07:20:42;0.50;88.60
55313;DHT22;46892;45.668;11.756;2024-01-25T07:23:08;0.50;88.40
55313;DHT22;46892;45.668;11.756;2024-01-25T07:25:34;0.70;88.40
55313;DHT22;46892;45.668;11.756;2024-01-25T07:27:59;0.80;88.40
55313;DHT22;46892;45.668;11.756;2024-01-25T07:30:25;0.70;87.80
55313;DHT22;46892;45.668;11.756;2024-01-25T07:32:51;0.80;87.90
55313;DHT22;46892;45.668;11.756;2024-01-25T07:35:17;0.90;88.30
55313;DHT22;46892;45.668;11.756;2024-01-25T07:37:43;1.10;89.50
55313;DHT22;46892;45.668;11.756;2024-01-25T07:40:09;1.40;89.90
55313;DHT22;46892;45.668;11.756;2024-01-25T07:42:35;1.60;90.10
55313;DHT22;46892;45.668;11.756;2024-01-25T07:45:00;2.10;89.80
55313;DHT22;46892;45.668;11.756;2024-01-25T07:47:26;2.20;89.70
55313;DHT22;46892;45.668;11.756;2024-01-25T07:49:52;2.40;89.10
55313;DHT22;46892;45.668;11.756;2024-01-25T07:52:18;2.60;88.60
55313;DHT22;46892;45.668;11.756;2024-01-25T07:54:43;2.80;88.30
55313;DHT22;46892;45.668;11.756;2024-01-25T07:57:10;3.00;88.20
55313;DHT22;46892;45.668;11.756;2024-01-25T07:59:36;3.10;87.90
55313;DHT22;46892;45.668;11.756;2024-01-25T08:02:02;3.40;86.80
55313;DHT22;46892;45.668;11.756;2024-01-25T08:04:28;3.50;85.80
55313;DHT22;46892;45.668;11.756;2024-01-25T08:06:54;3.60;85.50
55313;DHT22;46892;45.668;11.756;2024-01-25T08:09:19;3.70;84.80
55313;DHT22;46892;45.668;11.756;2024-01-25T08:11:45;3.70;84.50
55313;DHT22;46892;45.668;11.756;2024-01-25T08:14:11;3.80;85.40
55313;DHT22;46892;45.668;11.756;2024-01-25T08:16:37;3.90;85.30
55313;DHT22;46892;45.668;11.756;2024-01-25T08:19:03;4.10;84.90
55313;DHT22;46892;45.668;11.756;2024-01-25T08:21:29;4.30;85.20
55313;DHT22;46892;45.668;11.756;2024-01-25T08:23:55;4.60;84.20
55313;DHT22;46892;45.668;11.756;2024-01-25T08:26:21;4.70;83.50
55313;DHT22;46892;45.668;11.756;2024-01-25T08:28:47;4.70;83.20
55313;DHT22;46892;45.668;11.756;2024-01-25T08:31:13;4.70;83.00
55313;DHT22;46892;45.668;11.756;2024-01-25T08:33:39;4.70;83.10
55313;DHT22;46892;45.668;11.756;2024-01-25T08:36:10;4.80;83.00
55313;DHT22;46892;45.668;11.756;2024-01-25T08:38:36;4.90;83.10
55313;DHT22;46892;45.668;11.756;2024-01-25T08:41:02;5.00;83.20
55313;DHT22;46892;45.668;11.756;2024-01-25T08:43:28;5.10;83.50
55313;DHT22;46892;45.668;11.756;2024-01-25T08:45:54;5.20;84.10
55313;DHT22;46892;45.668;11.756;2024-01-25T08:48:20;5.60;83.40
55313;DHT22;46892;45.668;11.756;2024-01-25T08:50:46;5.80;81.70
55313;DHT22;46892;45.668;11.756;2024-01-25T08:53:12;5.80;82.40
55313;DHT22;46892;45.668;11.756;2024-01-25T08:55:37;5.90;82.10
55313;DHT22;46892;45.668;11.756;2024-01-25T08:58:04;6.20;84.50
55313;DHT22;46892;45.668;11.756;2024-01-25T09:00:29;6.40;82.70
55313;DHT22;46892;45.668;11.756;2024-01-25T09:02:55;6.50;83.00
55313;DHT22;46892;45.668;11.756;2024-01-25T09:05:21;6.70;82.80
55313;DHT22;46892;45.668;11.756;2024-01-25T09:07:47;7.00;81.40
55313;DHT22;46892;45.668;11.756;2024-01-25T09:10:13;7.40;81.60
55313;DHT22;46892;45.668;11.756;2024-01-25T09:12:40;7.70;79.30
55313;DHT22;46892;45.668;11.756;2024-01-25T09:15:07;7.80;77.50
55313;DHT22;46892;45.668;11.756;2024-01-25T09:17:33;7.90;77.10
55313;DHT22;46892;45.668;11.756;2024-01-25T09:19:59;8.00;76.90
55313;DHT22;46892;45.668;11.756;2024-01-25T09:22:25;8.10;78.50
55313;DHT22;46892;45.668;11.756;2024-01-25T09:24:53;8.30;76.60
55313;DHT22;46892;45.668;11.756;2024-01-25T09:27:19;8.40;75.40
55313;DHT22;46892;45.668;11.756;2024-01-25T09:29:44;8.50;75.10
55313;DHT22;46892;45.668;11.756;2024-01-25T09:32:10;8.70;76.30
55313;DHT22;46892;45.668;11.756;2024-01-25T09:34:39;8.60;74.30
55313;DHT22;46892;45.668;11.756;2024-01-25T09:37:05;8.60;74.70
55313;DHT22;46892;45.668;11.756;2024-01-25T09:39:31;8.50;74.40
55313;DHT22;46892;45.668;11.756;2024-01-25T09:41:58;8.50;74.50
55313;DHT22;46892;45.668;11.756;2024-01-25T09:44:24;8.50;74.70
55313;DHT22;46892;45.668;11.756;2024-01-25T09:46:51;8.50;74.20
55313;DHT22;46892;45.668;11.756;2024-01-25T09:49:17;8.40;74.50
55313;DHT22;46892;45.668;11.756;2024-01-25T09:51:43;8.40;74.60
55313;DHT22;46892;45.668;11.756;2024-01-25T09:54:09;8.50;74.50
55313;DHT22;46892;45.668;11.756;2024-01-25T09:56:36;8.60;74.40
55313;DHT22;46892;45.668;11.756;2024-01-25T09:59:02;8.60;74.60
55313;DHT22;46892;45.668;11.756;2024-01-25T10:01:30;8.70;74.50
55313;DHT22;46892;45.668;11.756;2024-01-25T10:03:55;8.80;77.50
55313;DHT22;46892;45.668;11.756;2024-01-25T10:06:22;8.80;74.30
55313;DHT22;46892;45.668;11.756;2024-01-25T10:08:48;8.80;74.00
55313;DHT22;46892;45.668;11.756;2024-01-25T10:11:14;8.80;74.20
55313;DHT22;46892;45.668;11.756;2024-01-25T10:13:41;8.90;72.70
55313;DHT22;46892;45.668;11.756;2024-01-25T10:16:13;8.90;73.20
55313;DHT22;46892;45.668;11.756;2024-01-25T10:18:45;8.90;74.10
55313;DHT22;46892;45.668;11.756;2024-01-25T10:21:13;8.90;72.80
55313;DHT22;46892;45.668;11.756;2024-01-25T10:23:39;8.90;73.10
55313;DHT22;46892;45.668;11.756;2024-01-25T10:26:05;9.00;73.90
55313;DHT22;46892;45.668;11.756;2024-01-25T10:28:33;9.20;72.80
55313;DHT22;46892;45.668;11.756;2024-01-25T10:31:02;9.30;72.30
55313;DHT22;46892;45.668;11.756;2024-01-25T10:33:30;9.30;72.80
55313;DHT22;46892;45.668;11.756;2024-01-25T10:35:57;9.40;71.90
55313;DHT22;46892;45.668;11.756;2024-01-25T10:38:35;9.40;71.00
55313;DHT22;46892;45.668;11.756;2024-01-25T10:41:05;9.50;69.80
55313;DHT22;46892;45.668;11.756;2024-01-25T10:43:33;9.50;69.70
55313;DHT22;46892;45.668;11.756;2024-01-25T10:46:00;9.60;69.30
55313;DHT22;46892;45.668;11.756;2024-01-25T10:48:26;9.80;68.20
55313;DHT22;46892;45.668;11.756;2024-01-25T10:50:56;9.80;68.40
55313;DHT22;46892;45.668;11.756;2024-01-25T10:53:23;9.80;67.80
55313;DHT22;46892;45.668;11.756;2024-01-25T10:55:49;9.80;68.10
55313;DHT22;46892;45.668;11.756;2024-01-25T10:58:16;9.90;68.50
55313;DHT22;46892;45.668;11.756;2024-01-25T11:00:52;9.80;67.60
55313;DHT22;46892;45.668;11.756;2024-01-25T11:03:27;9.90;67.80
55313;DHT22;46892;45.668;11.756;2024-01-25T11:05:55;10.00;67.40
55313;DHT22;46892;45.668;11.756;2024-01-25T11:08:21;10.10;66.30
55313;DHT22;46892;45.668;11.756;2024-01-25T11:10:52;10.30;67.00
55313;DHT22;46892;45.668;11.756;2024-01-25T11:13:26;10.40;65.50
55313;DHT22;46892;45.668;11.756;2024-01-25T11:15:52;10.30;64.90
55313;DHT22;46892;45.668;11.756;2024-01-25T11:18:18;10.40;65.70
55313;DHT22;46892;45.668;11.756;2024-01-25T11:20:47;10.40;65.20
55313;DHT22;46892;45.668;11.756;2024-01-25T11:23:15;10.40;64.90
55313;DHT22;46892;45.668;11.756;2024-01-25T11:25:44;10.50;64.60
55313;DHT22;46892;45.668;11.756;2024-01-25T11:28:11;10.70;65.30
55313;DHT22;46892;45.668;11.756;2024-01-25T11:30:39;11.00;63.90
55313;DHT22;46892;45.668;11.756;2024-01-25T11:33:07;11.10;64.10
55313;DHT22;46892;45.668;11.756;2024-01-25T11:35:33;11.10;64.30
55313;DHT22;46892;45.668;11.756;2024-01-25T11:37:59;11.20;65.70
55313;DHT22;46892;45.668;11.756;2024-01-25T11:40:25;11.20;64.80
55313;DHT22;46892;45.668;11.756;2024-01-25T11:42:51;11.30;64.00
55313;DHT22;46892;45.668;11.756;2024-01-25T11:45:17;11.30;64.40
55313;DHT22;46892;45.668;11.756;2024-01-25T11:47:44;11.50;65.20
55313;DHT22;46892;45.668;11.756;2024-01-25T11:50:12;11.60;64.10
55313;DHT22;46892;45.668;11.756;2024-01-25T11:52:38;11.70;65.60
55313;DHT22;46892;45.668;11.756;2024-01-25T11:55:06;11.80;64.70
55313;DHT22;46892;45.668;11.756;2024-01-25T11:57:37;11.90;64.60
55313;DHT22;46892;45.668;11.756;2024-01-25T12:00:05;11.90;64.50
55313;DHT22;46892;45.668;11.756;2024-01-25T12:02:31;12.00;64.00
55313;DHT22;46892;45.668;11.756;2024-01-25T12:04:57;12.00;64.40
55313;DHT22;46892;45.668;11.756;2024-01-25T12:07:23;12.00;63.70
55313;DHT22;46892;45.668;11.756;2024-01-25T12:10:06;12.00;63.50
55313;DHT22;46892;45.668;11.756;2024-01-25T12:12:32;12.10;65.20
55313;DHT22;46892;45.668;11.756;2024-01-25T12:15:05;12.20;64.60
55313;DHT22;46892;45.668;11.756;2024-01-25T12:17:32;12.30;64.00
55313;DHT22;46892;45.668;11.756;2024-01-25T12:19:59;12.30;64.40
55313;DHT22;46892;45.668;11.756;2024-01-25T12:22:28;12.50;64.20
55313;DHT22;46892;45.668;11.756;2024-01-25T12:24:56;12.50;64.40
55313;DHT22;46892;45.668;11.756;2024-01-25T12:27:22;12.40;65.00
55313;DHT22;46892;45.668;11.756;2024-01-25T12:29:50;12.50;64.60
55313;DHT22;46892;45.668;11.756;2024-01-25T12:32:17;12.50;65.40
55313;DHT22;46892;45.668;11.756;2024-01-25T12:34:53;12.60;65.20
55313;DHT22;46892;45.668;11.756;2024-01-25T12:37:19;12.60;64.30
55313;DHT22;46892;45.668;11.756;2024-01-25T12:39:44;12.70;65.20
55313;DHT22;46892;45.668;11.756;2024-01-25T12:42:10;12.80;65.40
55313;DHT22;46892;45.668;11.756;2024-01-25T12:44:36;12.80;65.00
55313;DHT22;46892;45.668;11.756;2024-01-25T12:47:02;13.00;64.00
55313;DHT22;46892;45.668;11.756;2024-01-25T12:49:32;13.00;65.20
55313;DHT22;46892;45.668;11.756;2024-01-25T12:51:58;13.10;64.50
55313;DHT22;46892;45.668;11.756;2024-01-25T12:54:24;13.10;63.90
55313;DHT22;46892;45.668;11.756;2024-01-25T12:56:50;13.00;63.50
55313;DHT22;46892;45.668;11.756;2024-01-25T12:59:16;13.00;65.10
55313;DHT22;46892;45.668;11.756;2024-01-25T13:01:42;13.00;65.20
55313;DHT22;46892;45.668;11.756;2024-01-25T13:04:08;12.90;65.00
55313;DHT22;46892;45.668;11.756;2024-01-25T13:06:33;13.00;65.20
55313;DHT22;46892;45.668;11.756;2024-01-25T13:08:59;13.00;64.90
55313;DHT22;46892;45.668;11.756;2024-01-25T13:11:25;13.00;64.70
55313;DHT22;46892;45.668;11.756;2024-01-25T13:13:51;12.90;65.00
55313;DHT22;46892;45.668;11.756;2024-01-25T13:16:17;12.80;65.30
55313;DHT22;46892;45.668;11.756;2024-01-25T13:18:42;12.80;64.90
55313;DHT22;46892;45.668;11.756;2024-01-25T13:21:09;12.80;65.20
55313;DHT22;46892;45.668;11.756;2024-01-25T13:23:35;12.80;66.00
55313;DHT22;46892;45.668;11.756;2024-01-25T13:26:01;12.80;65.50
55313;DHT22;46892;45.668;11.756;2024-01-25T13:28:27;12.80;65.60
55313;DHT22;46892;45.668;11.756;2024-01-25T13:30:55;12.80;66.00
55313;DHT22;46892;45.668;11.756;2024-01-25T13:33:22;12.80;65.10
55313;DHT22;46892;45.668;11.756;2024-01-25T13:35:48;12.70;64.20
55313;DHT22;46892;45.668;11.756;2024-01-25T13:38:13;12.70;64.20
55313;DHT22;46892;45.668;11.756;2024-01-25T13:40:42;12.70;64.60
55313;DHT22;46892;45.668;11.756;2024-01-25T13:43:08;12.70;64.10
55313;DHT22;46892;45.668;11.756;2024-01-25T13:45:33;12.70;64.30
55313;DHT22;46892;45.668;11.756;2024-01-25T13:47:59;12.70;65.40
55313;DHT22;46892;45.668;11.756;2024-01-25T13:50:25;12.80;65.40
55313;DHT22;46892;45.668;11.756;2024-01-25T13:52:51;12.80;65.40
55313;DHT22;46892;45.668;11.756;2024-01-25T13:55:17;12.80;65.40
55313;DHT22;46892;45.668;11.756;2024-01-25T13:57:43;12.70;65.40
55313;DHT22;46892;45.668;11.756;2024-01-25T14:00:09;12.70;64.90
55313;DHT22;46892;45.668;11.756;2024-01-25T14:02:35;12.70;65.10
55313;DHT22;46892;45.668;11.756;2024-01-25T14:05:01;12.70;66.60
55313;DHT22;46892;45.668;11.756;2024-01-25T14:07:27;12.70;66.00
55313;DHT22;46892;45.668;11.756;2024-01-25T14:09:53;12.80;65.30
55313;DHT22;46892;45.668;11.756;2024-01-25T14:12:19;12.80;65.20
55313;DHT22;46892;45.668;11.756;2024-01-25T14:14:45;12.90;64.10
55313;DHT22;46892;45.668;11.756;2024-01-25T14:17:10;13.00;64.50
55313;DHT22;46892;45.668;11.756;2024-01-25T14:19:36;13.10;63.90
55313;DHT22;46892;45.668;11.756;2024-01-25T14:22:02;13.20;63.60
55313;DHT22;46892;45.668;11.756;2024-01-25T14:24:28;13.20;64.30
55313;DHT22;46892;45.668;11.756;2024-01-25T14:26:54;13.20;64.40
55313;DHT22;46892;45.668;11.756;2024-01-25T14:29:19;13.20;65.10
55313;DHT22;46892;45.668;11.756;2024-01-25T14:31:45;13.10;64.80
55313;DHT22;46892;45.668;11.756;2024-01-25T14:34:11;13.00;65.30
55313;DHT22;46892;45.668;11.756;2024-01-25T14:36:37;13.00;65.50
55313;DHT22;46892;45.668;11.756;2024-01-25T14:39:03;13.00;65.70
55313;DHT22;46892;45.668;11.756;2024-01-25T14:41:30;12.90;65.90
55313;DHT22;46892;45.668;11.756;2024-01-25T14:43:57;12.80;66.50
55313;DHT22;46892;45.668;11.756;2024-01-25T14:46:22;12.80;66.40
55313;DHT22;46892;45.668;11.756;2024-01-25T14:48:48;12.80;66.70
55313;DHT22;46892;45.668;11.756;2024-01-25T14:51:14;12.80;66.90
55313;DHT22;46892;45.668;11.756;2024-01-25T14:53:40;12.80;67.10
55313;DHT22;46892;45.668;11.756;2024-01-25T14:56:06;12.80;67.60
55313;DHT22;46892;45.668;11.756;2024-01-25T14:58:31;12.80;67.80
55313;DHT22;46892;45.668;11.756;2024-01-25T15:00:57;12.80;68.00
55313;DHT22;46892;45.668;11.756;2024-01-25T15:03:23;12.80;66.10
55313;DHT22;46892;45.668;11.756;2024-01-25T15:05:49;12.90;66.00
55313;DHT22;46892;45.668;11.756;2024-01-25T15:08:14;13.00;66.50
55313;DHT22;46892;45.668;11.756;2024-01-25T15:10:40;13.00;65.20
55313;DHT22;46892;45.668;11.756;2024-01-25T15:13:06;13.00;64.90
55313;DHT22;46892;45.668;11.756;2024-01-25T15:15:32;13.10;64.00
55313;DHT22;46892;45.668;11.756;2024-01-25T15:17:57;13.10;63.80
55313;DHT22;46892;45.668;11.756;2024-01-25T15:20:23;13.10;63.90
55313;DHT22;46892;45.668;11.756;2024-01-25T15:22:50;13.00;64.40